DAL200 KATL-FAOR
Flight info
| Callsign | DAL200 |
|---|---|
| Flight time | N/A |
| Altitude | 33000 |
| Route | GAIRY2 IRQ DCT DEDDY Y436 JAINS/M084F330 DCT BOREX/M084F350 DCT VINSO DCT KAVAX DCT DABAK/N0495F350 UL375 IRAXI/N0493F370 UL375 TODIS DCT MALRO DCT TELET DCT UKEDI UL375 DIGOR DCT 02S025W/N0485F390 06S020W 09S015W 12S010W 15S005W 17S000E/N0479F410 19S005E 21S010E DCT ETUDU DCT XALVI UN181 PEDIL UQ19 AVAGO AVAGO1D |
| Aircraft | A359/H-SDE2E3GHIJ3J4J5LM1ORWXY/LB1D1 |
Departure
| Time | 2026-05-06 00:38 |
|---|---|
| Airport | Hartsfield Jackson Atlanta International Airport (KATL) |
Arrival
| Time | N/A |
|---|---|
| Airport | O.R. Tambo International Airport (FAOR) |
| Time | Latitude | Longitude | Altitude | Speed | Heading |
|---|---|---|---|---|---|
| 2026-05-06 00:11 | 33.63799 | -84.42061 | 1013 ft | 0 kts | 89° |
| 2026-05-06 00:27 | 33.63799 | -84.42070 | 1012 ft | 4 kts | 89° |
| 2026-05-06 00:27 | 33.63799 | -84.42102 | 1012 ft | 4 kts | 89° |
| 2026-05-06 00:28 | 33.63800 | -84.42129 | 1012 ft | 4 kts | 112° |
| 2026-05-06 00:28 | 33.63815 | -84.42146 | 1012 ft | 4 kts | 176° |
| 2026-05-06 00:28 | 33.63838 | -84.42146 | 1012 ft | 1 kts | 180° |
| 2026-05-06 00:29 | 33.63838 | -84.42147 | 1012 ft | 0 kts | 180° |
| 2026-05-06 00:31 | 33.63832 | -84.42147 | 1012 ft | 4 kts | 180° |
| 2026-05-06 00:31 | 33.63784 | -84.42146 | 1012 ft | 9 kts | 179° |
| 2026-05-06 00:32 | 33.63725 | -84.42145 | 1013 ft | 8 kts | 180° |
| 2026-05-06 00:32 | 33.63670 | -84.42140 | 1013 ft | 6 kts | 154° |
| 2026-05-06 00:32 | 33.63655 | -84.42092 | 1013 ft | 8 kts | 91° |
| 2026-05-06 00:32 | 33.63655 | -84.41997 | 1013 ft | 13 kts | 90° |
| 2026-05-06 00:33 | 33.63654 | -84.41890 | 1012 ft | 13 kts | 90° |
| 2026-05-06 00:33 | 33.63654 | -84.41782 | 1012 ft | 13 kts | 90° |
| 2026-05-06 00:33 | 33.63654 | -84.41675 | 1012 ft | 13 kts | 90° |
| 2026-05-06 00:33 | 33.63654 | -84.41566 | 1012 ft | 14 kts | 90° |
| 2026-05-06 00:34 | 33.63655 | -84.41452 | 1012 ft | 14 kts | 90° |
| 2026-05-06 00:34 | 33.63655 | -84.41339 | 1012 ft | 14 kts | 90° |
| 2026-05-06 00:34 | 33.63655 | -84.41222 | 1012 ft | 15 kts | 90° |
| 2026-05-06 00:34 | 33.63655 | -84.41078 | 1012 ft | 18 kts | 90° |
| 2026-05-06 00:35 | 33.63655 | -84.40928 | 1012 ft | 18 kts | 90° |
| 2026-05-06 00:35 | 33.63655 | -84.40803 | 1013 ft | 13 kts | 91° |
| 2026-05-06 00:35 | 33.63605 | -84.40742 | 1013 ft | 10 kts | 175° |
| 2026-05-06 00:35 | 33.63535 | -84.40743 | 1013 ft | 10 kts | 181° |
| 2026-05-06 00:36 | 33.63473 | -84.40767 | 1013 ft | 8 kts | 233° |
| 2026-05-06 00:36 | 33.63470 | -84.40818 | 1028 ft | 0 kts | 270° |
| 2026-05-06 00:37 | 33.63470 | -84.40833 | 1013 ft | 7 kts | 270° |
| 2026-05-06 00:37 | 33.63471 | -84.41077 | 1012 ft | 61 kts | 270° |
| 2026-05-06 00:37 | 33.63471 | -84.41848 | 1013 ft | 122 kts | 270° |
| 2026-05-06 00:37 | 33.63472 | -84.43092 | 1013 ft | 175 kts | 270° |
| 2026-05-06 00:38 | 33.63469 | -84.44570 | 1681 ft | 171 kts | 267° |
| 2026-05-06 00:38 | 33.63440 | -84.46018 | 2283 ft | 177 kts | 262° |
| 2026-05-06 00:38 | 33.63245 | -84.47513 | 2484 ft | 187 kts | 252° |
| 2026-05-06 00:38 | 33.62804 | -84.49047 | 2616 ft | 200 kts | 244° |
| 2026-05-06 00:39 | 33.62189 | -84.50602 | 2805 ft | 212 kts | 239° |
| 2026-05-06 00:39 | 33.61463 | -84.52226 | 2968 ft | 228 kts | 239° |
| 2026-05-06 00:39 | 33.60706 | -84.53975 | 3176 ft | 242 kts | 240° |
| 2026-05-06 00:39 | 33.59919 | -84.55803 | 3491 ft | 251 kts | 239° |
| 2026-05-06 00:40 | 33.58839 | -84.57444 | 3909 ft | 252 kts | 218° |
| 2026-05-06 00:40 | 33.57280 | -84.58367 | 4376 ft | 253 kts | 191° |
| 2026-05-06 00:40 | 33.55545 | -84.58534 | 4862 ft | 255 kts | 180° |
| 2026-05-06 00:40 | 33.54339 | -84.58527 | 5190 ft | 257 kts | 180° |
| 2026-05-06 00:41 | 33.51947 | -84.58492 | 5830 ft | 261 kts | 181° |
| 2026-05-06 00:41 | 33.50113 | -84.58465 | 6286 ft | 265 kts | 180° |
| 2026-05-06 00:41 | 33.48288 | -84.58076 | 6705 ft | 271 kts | 161° |
| 2026-05-06 00:41 | 33.46703 | -84.56830 | 7113 ft | 279 kts | 135° |
| 2026-05-06 00:42 | 33.45713 | -84.54802 | 7531 ft | 287 kts | 108° |
| 2026-05-06 00:42 | 33.45537 | -84.52401 | 7958 ft | 293 kts | 89° |
| 2026-05-06 00:42 | 33.45593 | -84.49960 | 8418 ft | 295 kts | 90° |
| 2026-05-06 00:42 | 33.45618 | -84.47491 | 8890 ft | 298 kts | 91° |
| 2026-05-06 00:43 | 33.45625 | -84.45001 | 9360 ft | 301 kts | 91° |
| 2026-05-06 00:43 | 33.45622 | -84.42483 | 9848 ft | 303 kts | 91° |
| 2026-05-06 00:43 | 33.45613 | -84.39944 | 10216 ft | 309 kts | 91° |
| 2026-05-06 00:43 | 33.45601 | -84.37323 | 10466 ft | 321 kts | 91° |
| 2026-05-06 00:44 | 33.45591 | -84.34599 | 10668 ft | 333 kts | 90° |
| 2026-05-06 00:44 | 33.45719 | -84.31785 | 10876 ft | 344 kts | 85° |
| 2026-05-06 00:44 | 33.45946 | -84.28886 | 11075 ft | 355 kts | 85° |
| 2026-05-06 00:44 | 33.46191 | -84.25898 | 11273 ft | 365 kts | 85° |
| 2026-05-06 00:45 | 33.46440 | -84.22828 | 11463 ft | 375 kts | 85° |
| 2026-05-06 00:45 | 33.46693 | -84.19679 | 11697 ft | 383 kts | 85° |
| 2026-05-06 00:45 | 33.46947 | -84.16487 | 12062 ft | 387 kts | 85° |
| 2026-05-06 00:45 | 33.47198 | -84.13311 | 12427 ft | 390 kts | 85° |
| 2026-05-06 00:46 | 33.47454 | -84.10065 | 12818 ft | 392 kts | 85° |
| 2026-05-06 00:46 | 33.47710 | -84.06806 | 13223 ft | 394 kts | 85° |
| 2026-05-06 00:46 | 33.47969 | -84.03485 | 13595 ft | 397 kts | 85° |
| 2026-05-06 00:46 | 33.48226 | -84.00188 | 13961 ft | 399 kts | 85° |
| 2026-05-06 00:47 | 33.48483 | -83.96866 | 14277 ft | 402 kts | 85° |
| 2026-05-06 00:47 | 33.48742 | -83.93520 | 14614 ft | 404 kts | 85° |
| 2026-05-06 00:47 | 33.48997 | -83.90203 | 14942 ft | 407 kts | 85° |
| 2026-05-06 00:47 | 33.49257 | -83.86820 | 15305 ft | 408 kts | 85° |
| 2026-05-06 00:48 | 33.49517 | -83.83414 | 15635 ft | 411 kts | 85° |
| 2026-05-06 00:48 | 33.49778 | -83.79992 | 15967 ft | 414 kts | 85° |
| 2026-05-06 00:48 | 33.50039 | -83.76549 | 16299 ft | 416 kts | 85° |
| 2026-05-06 00:48 | 33.50301 | -83.73079 | 16624 ft | 419 kts | 85° |
| 2026-05-06 00:49 | 33.50564 | -83.69588 | 16952 ft | 422 kts | 85° |
| 2026-05-06 00:49 | 33.50828 | -83.66072 | 17290 ft | 424 kts | 85° |
| 2026-05-06 00:49 | 33.51099 | -83.62544 | 17607 ft | 427 kts | 84° |
| 2026-05-06 00:49 | 33.51550 | -83.59005 | 17921 ft | 430 kts | 80° |
| 2026-05-06 00:50 | 33.52085 | -83.55468 | 18254 ft | 433 kts | 80° |
| 2026-05-06 00:50 | 33.52614 | -83.51909 | 18543 ft | 435 kts | 80° |
| 2026-05-06 00:50 | 33.53132 | -83.48329 | 18852 ft | 437 kts | 81° |
| 2026-05-06 00:50 | 33.53641 | -83.44734 | 19145 ft | 439 kts | 81° |
| 2026-05-06 00:51 | 33.54148 | -83.41114 | 19468 ft | 440 kts | 81° |
| 2026-05-06 00:51 | 33.54652 | -83.37486 | 19766 ft | 442 kts | 81° |
| 2026-05-06 00:51 | 33.55157 | -83.33829 | 20072 ft | 444 kts | 81° |
| 2026-05-06 00:51 | 33.55654 | -83.30212 | 20368 ft | 446 kts | 81° |
| 2026-05-06 00:52 | 33.56159 | -83.26529 | 20671 ft | 448 kts | 81° |
| 2026-05-06 00:52 | 33.56664 | -83.22836 | 20967 ft | 450 kts | 81° |
| 2026-05-06 00:52 | 33.57170 | -83.19132 | 21279 ft | 452 kts | 81° |
| 2026-05-06 00:52 | 33.57678 | -83.15397 | 21570 ft | 454 kts | 81° |
| 2026-05-06 00:53 | 33.58186 | -83.11650 | 21858 ft | 456 kts | 80° |
| 2026-05-06 00:53 | 33.58696 | -83.07884 | 22154 ft | 458 kts | 80° |
| 2026-05-06 00:53 | 33.59206 | -83.04110 | 22450 ft | 460 kts | 80° |
| 2026-05-06 00:53 | 33.59717 | -83.00316 | 22740 ft | 462 kts | 80° |
| 2026-05-06 00:54 | 33.60230 | -82.96503 | 23037 ft | 464 kts | 80° |
| 2026-05-06 00:54 | 33.60745 | -82.92665 | 23323 ft | 466 kts | 80° |
| 2026-05-06 00:54 | 33.61260 | -82.88815 | 23608 ft | 468 kts | 80° |
| 2026-05-06 00:54 | 33.61769 | -82.85002 | 23848 ft | 470 kts | 80° |
| 2026-05-06 00:55 | 33.62286 | -82.81121 | 24103 ft | 472 kts | 80° |
| 2026-05-06 00:55 | 33.62803 | -82.77229 | 24350 ft | 473 kts | 80° |
| 2026-05-06 00:55 | 33.63321 | -82.73317 | 24555 ft | 476 kts | 80° |
| 2026-05-06 00:55 | 33.63841 | -82.69384 | 24800 ft | 478 kts | 81° |
| 2026-05-06 00:56 | 33.64361 | -82.65439 | 25050 ft | 480 kts | 81° |
| 2026-05-06 00:56 | 33.64883 | -82.61470 | 25299 ft | 481 kts | 81° |
| 2026-05-06 00:56 | 33.65404 | -82.57497 | 25546 ft | 483 kts | 81° |
| 2026-05-06 00:56 | 33.65926 | -82.53501 | 25790 ft | 485 kts | 81° |
| 2026-05-06 00:57 | 33.66449 | -82.49492 | 25994 ft | 487 kts | 81° |
| 2026-05-06 00:57 | 33.66973 | -82.45467 | 26251 ft | 489 kts | 81° |
| 2026-05-06 00:57 | 33.67497 | -82.41431 | 26496 ft | 491 kts | 81° |
| 2026-05-06 00:57 | 33.68023 | -82.37366 | 26719 ft | 493 kts | 81° |
| 2026-05-06 00:58 | 33.68373 | -82.34663 | 26862 ft | 495 kts | 81° |
| 2026-05-06 00:58 | 33.69071 | -82.29243 | 27207 ft | 497 kts | 81° |
| 2026-05-06 00:58 | 33.69599 | -82.25133 | 27471 ft | 499 kts | 81° |
| 2026-05-06 00:58 | 33.69999 | -82.20986 | 27687 ft | 501 kts | 87° |
| 2026-05-06 00:59 | 33.69911 | -82.16807 | 27915 ft | 502 kts | 97° |
| 2026-05-06 00:59 | 33.69517 | -82.14016 | 28076 ft | 502 kts | 104° |
| 2026-05-06 00:59 | 33.68473 | -82.10077 | 28311 ft | 502 kts | 113° |
| 2026-05-06 00:59 | 33.67145 | -82.06204 | 28544 ft | 503 kts | 115° |
| 2026-05-06 01:00 | 33.65724 | -82.02360 | 28778 ft | 504 kts | 116° |
| 2026-05-06 01:00 | 33.64263 | -81.98528 | 29002 ft | 506 kts | 116° |
| 2026-05-06 01:00 | 33.62786 | -81.94677 | 29222 ft | 508 kts | 116° |
| 2026-05-06 01:00 | 33.61313 | -81.90819 | 29440 ft | 509 kts | 116° |
| 2026-05-06 01:01 | 33.59840 | -81.86935 | 29655 ft | 511 kts | 116° |
| 2026-05-06 01:01 | 33.58374 | -81.83044 | 29867 ft | 513 kts | 116° |
| 2026-05-06 01:01 | 33.56908 | -81.79141 | 30083 ft | 514 kts | 116° |
| 2026-05-06 01:01 | 33.55439 | -81.75223 | 30239 ft | 516 kts | 116° |
| 2026-05-06 01:02 | 33.53962 | -81.71284 | 30403 ft | 517 kts | 116° |
| 2026-05-06 01:02 | 33.52484 | -81.67351 | 30578 ft | 518 kts | 116° |
| 2026-05-06 01:02 | 33.51001 | -81.63408 | 30722 ft | 520 kts | 116° |
| 2026-05-06 01:02 | 33.49514 | -81.59460 | 30857 ft | 521 kts | 116° |
| 2026-05-06 01:03 | 33.48018 | -81.55493 | 31004 ft | 522 kts | 116° |
| 2026-05-06 01:03 | 33.46517 | -81.51519 | 31183 ft | 523 kts | 116° |
| 2026-05-06 01:03 | 33.45017 | -81.47552 | 31415 ft | 522 kts | 116° |
| 2026-05-06 01:03 | 33.43518 | -81.43593 | 31643 ft | 521 kts | 116° |
| 2026-05-06 01:04 | 33.42019 | -81.39640 | 31874 ft | 521 kts | 116° |
| 2026-05-06 01:04 | 33.40560 | -81.35794 | 32066 ft | 521 kts | 116° |
| 2026-05-06 01:04 | 33.39062 | -81.31854 | 32273 ft | 520 kts | 117° |
| 2026-05-06 01:04 | 33.37563 | -81.27912 | 32450 ft | 520 kts | 117° |
| 2026-05-06 01:05 | 33.36066 | -81.23982 | 32601 ft | 520 kts | 117° |
| 2026-05-06 01:05 | 33.34563 | -81.20043 | 32783 ft | 520 kts | 117° |
| 2026-05-06 01:05 | 33.33062 | -81.16111 | 32987 ft | 519 kts | 117° |
| 2026-05-06 01:06 | 33.30040 | -81.08212 | 33074 ft | 525 kts | 117° |
| 2026-05-06 01:06 | 33.26996 | -81.00273 | 33078 ft | 525 kts | 117° |
| 2026-05-06 01:07 | 33.23930 | -80.92292 | 33077 ft | 525 kts | 117° |
| 2026-05-06 01:07 | 33.20895 | -80.84412 | 33079 ft | 525 kts | 117° |
| 2026-05-06 01:08 | 33.17837 | -80.76492 | 33075 ft | 525 kts | 117° |
| 2026-05-06 01:08 | 33.14775 | -80.68579 | 33070 ft | 525 kts | 117° |
| 2026-05-06 01:09 | 33.11706 | -80.60667 | 33093 ft | 525 kts | 117° |
| 2026-05-06 01:09 | 33.08635 | -80.52769 | 33085 ft | 525 kts | 117° |
| 2026-05-06 01:10 | 33.05554 | -80.44862 | 33101 ft | 526 kts | 117° |
| 2026-05-06 01:10 | 33.02466 | -80.36956 | 33094 ft | 526 kts | 117° |
| 2026-05-06 01:11 | 32.99373 | -80.29055 | 33092 ft | 526 kts | 117° |
| 2026-05-06 01:11 | 32.96276 | -80.21162 | 33109 ft | 526 kts | 117° |
| 2026-05-06 01:12 | 32.93170 | -80.13266 | 33109 ft | 526 kts | 118° |
| 2026-05-06 01:12 | 32.90060 | -80.05378 | 33109 ft | 526 kts | 118° |
| 2026-05-06 01:13 | 32.87087 | -79.97409 | 33109 ft | 528 kts | 114° |
| 2026-05-06 01:13 | 32.84426 | -79.89280 | 33109 ft | 528 kts | 113° |
| 2026-05-06 01:14 | 32.80413 | -79.77084 | 33106 ft | 528 kts | 114° |
| 2026-05-06 01:14 | 32.77672 | -79.68973 | 33107 ft | 528 kts | 114° |
| 2026-05-06 01:15 | 32.74932 | -79.60933 | 33102 ft | 528 kts | 114° |
| 2026-05-06 01:15 | 32.72203 | -79.52823 | 33102 ft | 528 kts | 113° |
| 2026-05-06 01:16 | 32.69632 | -79.44636 | 33105 ft | 529 kts | 112° |
| 2026-05-06 01:16 | 32.67079 | -79.36428 | 33105 ft | 530 kts | 112° |
| 2026-05-06 01:17 | 32.64493 | -79.28218 | 33105 ft | 530 kts | 113° |
| 2026-05-06 01:17 | 32.61887 | -79.20023 | 33107 ft | 530 kts | 113° |
| 2026-05-06 01:18 | 32.59293 | -79.11899 | 33113 ft | 530 kts | 113° |
| 2026-05-06 01:18 | 32.56675 | -79.03717 | 33111 ft | 530 kts | 113° |
| 2026-05-06 01:19 | 32.54051 | -78.95535 | 33120 ft | 531 kts | 113° |
| 2026-05-06 01:19 | 32.51417 | -78.87345 | 33119 ft | 532 kts | 113° |
| 2026-05-06 01:20 | 32.48778 | -78.79157 | 33115 ft | 532 kts | 113° |
| 2026-05-06 01:20 | 32.46134 | -78.70977 | 33117 ft | 532 kts | 113° |
| 2026-05-06 01:21 | 32.43486 | -78.62805 | 33122 ft | 533 kts | 114° |
| 2026-05-06 01:21 | 32.40825 | -78.54616 | 33121 ft | 533 kts | 114° |
| 2026-05-06 01:22 | 32.38157 | -78.46426 | 33119 ft | 533 kts | 114° |
| 2026-05-06 01:22 | 32.35484 | -78.38241 | 33121 ft | 533 kts | 114° |
| 2026-05-06 01:23 | 32.32805 | -78.30056 | 33122 ft | 535 kts | 114° |
| 2026-05-06 01:23 | 32.30117 | -78.21854 | 33121 ft | 535 kts | 114° |
| 2026-05-06 01:24 | 32.27421 | -78.13647 | 33124 ft | 535 kts | 114° |
| 2026-05-06 01:24 | 32.24715 | -78.05445 | 33127 ft | 535 kts | 114° |
| 2026-05-06 01:25 | 32.22009 | -77.97256 | 33127 ft | 535 kts | 114° |
| 2026-05-06 01:25 | 32.18884 | -77.89332 | 33130 ft | 530 kts | 127° |
| 2026-05-06 01:26 | 32.16663 | -77.85888 | 33130 ft | 523 kts | 138° |
| 2026-05-06 01:26 | 32.14119 | -77.82851 | 33128 ft | 520 kts | 141° |
| 2026-05-06 01:26 | 32.08796 | -77.77079 | 33130 ft | 519 kts | 143° |
| 2026-05-06 01:27 | 32.03399 | -77.71424 | 33133 ft | 518 kts | 144° |
| 2026-05-06 01:27 | 31.98014 | -77.65753 | 33137 ft | 520 kts | 144° |
| 2026-05-06 01:28 | 31.92632 | -77.60049 | 33130 ft | 521 kts | 144° |
| 2026-05-06 01:28 | 31.87246 | -77.54342 | 33133 ft | 522 kts | 144° |
| 2026-05-06 01:29 | 31.81851 | -77.48631 | 33141 ft | 522 kts | 144° |
| 2026-05-06 01:29 | 31.76454 | -77.42927 | 33138 ft | 522 kts | 144° |
| 2026-05-06 01:30 | 31.71084 | -77.37262 | 33108 ft | 521 kts | 145° |
| 2026-05-06 01:30 | 31.65675 | -77.31566 | 33134 ft | 523 kts | 145° |
| 2026-05-06 01:31 | 31.60221 | -77.25835 | 33135 ft | 523 kts | 145° |
| 2026-05-06 01:31 | 31.54803 | -77.20146 | 33129 ft | 523 kts | 145° |
| 2026-05-06 01:32 | 31.49381 | -77.14462 | 33137 ft | 523 kts | 145° |
| 2026-05-06 01:32 | 31.43989 | -77.08820 | 33137 ft | 523 kts | 145° |
| 2026-05-06 01:33 | 31.38546 | -77.03070 | 33135 ft | 527 kts | 142° |
| 2026-05-06 01:33 | 31.34147 | -76.96131 | 33141 ft | 544 kts | 122° |
| 2026-05-06 01:34 | 31.30868 | -76.88107 | 33139 ft | 548 kts | 119° |
| 2026-05-06 01:34 | 31.27794 | -76.79940 | 33139 ft | 549 kts | 118° |
| 2026-05-06 01:35 | 31.24714 | -76.71773 | 33139 ft | 549 kts | 118° |
| 2026-05-06 01:35 | 31.21591 | -76.63618 | 33135 ft | 548 kts | 119° |
| 2026-05-06 01:36 | 31.18448 | -76.55479 | 33138 ft | 548 kts | 119° |
| 2026-05-06 01:36 | 31.15320 | -76.47409 | 33131 ft | 548 kts | 119° |